Time;durP1;ratioP1;P1;durP2;ratioP2;P2;SDS_P1;SDS_P2;PMS_P1;PMS_P2;Temp;Humidity;BMP_temperature;BMP_pressure;BME280_temperature;BME280_humidity;BME280_pressure;Samples;Min_cycle;Max_cycle;Signal;HPM_P1;HPM_P2
2022/08/18 00:01:18;;;;;;;11.13;9.98;;;;;;;25.10;56.16;101215.34;4962834;28;20130;-64
2022/08/18 00:03:44;;;;;;;11.02;9.93;;;;;;;25.06;56.09;101214.03;4977580;28;20042;-63
2022/08/18 00:06:10;;;;;;;12.13;9.55;;;;;;;25.05;56.04;101212.34;4967871;28;20118;-62
2022/08/18 00:08:35;;;;;;;10.85;9.75;;;;;;;25.04;56.02;101214.19;4974851;28;20563;-62
2022/08/18 00:11:01;;;;;;;11.20;10.10;;;;;;;25.04;55.90;101224.00;4969189;28;20022;-65
2022/08/18 00:13:26;;;;;;;11.20;10.10;;;;;;;25.07;55.85;101231.66;4971428;28;20038;-63
2022/08/18 00:15:51;;;;;;;11.00;9.90;;;;;;;25.08;56.04;101230.69;4982078;28;20419;-66
2022/08/18 00:18:17;;;;;;;11.07;10.00;;;;;;;25.02;55.98;101224.16;4965945;28;20035;-64
2022/08/18 00:20:43;;;;;;;11.02;9.93;;;;;;;25.07;56.10;101234.34;4969138;28;20256;-63
2022/08/18 00:23:08;;;;;;;10.57;9.48;;;;;;;25.04;56.07;101224.84;4981391;28;20407;-65
2022/08/18 00:25:34;;;;;;;10.13;9.13;;;;;;;25.04;56.29;101232.00;4968207;28;20033;-63
2022/08/18 00:28:00;;;;;;;11.30;10.07;;;;;;;25.07;56.29;101239.66;4979589;28;20030;-63
2022/08/18 00:30:25;;;;;;;10.27;9.27;;;;;;;25.03;56.03;101235.66;4976661;28;20377;-63
2022/08/18 00:32:53;;;;;;;10.70;9.60;;;;;;;25.05;56.20;101237.16;4973949;28;20039;-64
2022/08/18 00:35:26;;;;;;;10.30;9.30;;;;;;;25.04;56.55;101238.19;4968742;28;20177;-67
2022/08/18 00:37:52;;;;;;;10.50;9.50;;;;;;;25.04;56.35;101237.31;4969577;28;20031;-65
2022/08/18 00:40:22;;;;;;;10.82;9.73;;;;;;;24.98;56.35;101228.97;4965606;28;20026;-64
2022/08/18 00:42:52;;;;;;;11.77;10.60;;;;;;;25.05;56.14;101244.34;4973353;28;20035;-64
2022/08/18 00:45:22;;;;;;;10.93;9.93;;;;;;;25.04;56.30;101253.31;4962394;28;20039;-63
2022/08/18 00:47:48;;;;;;;10.63;9.60;;;;;;;24.92;56.18;101245.63;4963800;28;20829;-66
2022/08/18 00:50:18;;;;;;;10.25;9.20;;;;;;;25.01;56.19;101253.63;4966231;28;20534;-64
2022/08/18 00:52:48;;;;;;;10.02;9.13;;;;;;;25.01;56.05;101249.16;4965810;28;20031;-67
2022/08/18 00:55:16;;;;;;;10.27;9.27;;;;;;;25.02;56.47;101250.00;4965985;28;20031;-65
2022/08/18 00:57:43;;;;;;;10.52;9.48;;;;;;;25.05;56.23;101241.66;4978966;28;20387;-65
2022/08/18 01:00:10;;;;;;;10.93;9.30;;;;;;;25.01;56.51;101238.50;4982860;28;20580;-65
2022/08/18 01:02:40;;;;;;;11.40;10.20;;;;;;;25.04;56.46;101240.84;4979569;28;20073;-63
2022/08/18 01:05:09;;;;;;;10.27;9.23;;;;;;;25.04;56.45;101248.84;4976822;28;20466;-64
2022/08/18 01:07:47;;;;;;;10.52;8.77;;;;;;;25.01;56.27;101250.97;4967060;28;20144;-65
2022/08/18 01:10:15;;;;;;;10.48;8.13;;;;;;;24.98;56.31;101236.16;4974624;28;20028;-63
2022/08/18 01:12:45;;;;;;;9.48;8.43;;;;;;;24.99;56.09;101232.47;4980663;28;20355;-64
2022/08/18 01:15:14;;;;;;;8.63;7.82;;;;;;;25.00;56.04;101231.50;4975359;28;20022;-65
2022/08/18 01:23:19;;;;;;;9.05;7.97;;;;;;;24.94;56.08;101229.47;4972203;28;20037;-65
2022/08/18 01:26:01;;;;;;;9.95;7.93;;;;;;;24.97;55.95;101237.13;4965084;28;20035;-66
2022/08/18 01:28:29;;;;;;;9.10;8.15;;;;;;;24.92;55.84;101224.28;4965265;28;20066;-65
2022/08/18 01:30:57;;;;;;;9.60;8.25;;;;;;;24.92;55.62;101229.63;4965778;28;21296;-64
2022/08/18 01:33:27;;;;;;;9.93;8.10;;;;;;;24.93;55.69;101231.31;4975793;28;20030;-66
2022/08/18 01:35:53;;;;;;;8.32;7.53;;;;;;;24.95;55.34;101239.97;4982086;28;20041;-66
2022/08/18 01:38:21;;;;;;;7.97;7.18;;;;;;;24.90;56.02;101230.78;4964923;28;20031;-63
2022/08/18 01:40:47;;;;;;;8.40;7.60;;;;;;;24.88;55.76;101236.28;4973587;28;20031;-66
2022/08/18 01:43:13;;;;;;;7.55;6.78;;;;;;;24.88;55.63;101230.09;4979318;28;20049;-66
2022/08/18 01:45:40;;;;;;;8.65;7.47;;;;;;;24.86;55.92;101232.91;4982138;28;20518;-64
2022/08/18 01:48:06;;;;;;;9.10;7.40;;;;;;;24.90;55.77;101231.63;4982537;28;20085;-65
2022/08/18 01:50:33;;;;;;;8.63;7.45;;;;;;;24.88;55.63;101228.28;4974884;28;20039;-65
2022/08/18 01:52:59;;;;;;;9.50;7.82;;;;;;;24.89;55.73;101235.28;4978956;28;20090;-66
2022/08/18 01:55:27;;;;;;;10.50;8.13;;;;;;;24.86;55.76;101224.09;4980872;28;20038;-64
2022/08/18 01:57:53;;;;;;;8.73;7.55;;;;;;;24.86;55.62;101221.44;4984122;28;20466;-63
2022/08/18 02:00:18;;;;;;;8.18;7.38;;;;;;;24.83;55.70;101235.91;4982806;28;20033;-64
2022/08/18 02:02:43;;;;;;;8.43;7.18;;;;;;;24.83;55.57;101221.75;4983942;28;20030;-65
2022/08/18 02:05:22;;;;;;;9.20;7.40;;;;;;;24.84;55.45;101220.78;4983925;28;20042;-64
2022/08/18 02:07:47;;;;;;;9.50;7.45;;;;;;;24.81;55.33;101214.75;4983449;28;20085;-64
2022/08/18 02:10:13;;;;;;;10.85;6.75;;;;;;;24.81;55.74;101208.59;4974092;28;20055;-65
2022/08/18 02:12:40;;;;;;;7.97;6.72;;;;;;;24.81;55.33;101216.59;4978776;28;20026;-64
2022/08/18 02:15:07;;;;;;;8.55;7.40;;;;;;;24.84;55.57;101220.78;4964608;28;20054;-65
2022/08/18 02:17:44;;;;;;;8.13;6.72;;;;;;;24.84;55.58;101226.94;4962836;28;20463;-66
2022/08/18 02:20:12;;;;;;;9.07;7.53;;;;;;;24.81;55.07;101232.56;4974021;28;20038;-63
2022/08/18 02:22:38;;;;;;;9.73;7.35;;;;;;;24.77;55.62;101226.72;4973527;28;20113;-66
2022/08/18 02:25:04;;;;;;;7.82;7.03;;;;;;;24.79;55.40;101223.91;4964186;28;20458;-64
2022/08/18 02:27:29;;;;;;;9.07;7.20;;;;;;;24.79;55.32;101239.91;4964085;28;20031;-64
2022/08/18 02:29:55;;;;;;;8.98;7.18;;;;;;;24.76;55.07;101238.38;4979111;28;20038;-63
2022/08/18 02:32:20;;;;;;;7.40;6.40;;;;;;;24.78;55.07;101232.88;4972417;28;20041;-65
2022/08/18 02:34:46;;;;;;;9.18;7.00;;;;;;;24.79;55.30;101231.91;4983642;28;20100;-65
2022/08/18 02:37:11;;;;;;;7.97;6.78;;;;;;;24.77;55.01;101242.72;4969919;28;20833;-66
2022/08/18 02:39:37;;;;;;;8.00;6.88;;;;;;;24.74;55.23;101242.22;4967208;28;20093;-66
2022/08/18 02:42:06;;;;;;;8.45;6.57;;;;;;;24.75;54.93;101244.72;4981984;28;20034;-66
2022/08/18 02:44:31;;;;;;;7.72;6.57;;;;;;;24.72;55.19;101238.84;4983136;28;20035;-67
2022/08/18 02:46:57;;;;;;;8.50;7.18;;;;;;;24.71;54.79;101240.69;4969958;28;20434;-64
2022/08/18 02:49:24;;;;;;;7.05;6.35;;;;;;;24.72;54.94;101238.84;4963362;28;20060;-65
2022/08/18 02:51:50;;;;;;;8.20;6.90;;;;;;;24.72;55.04;101253.03;4963428;28;20852;-64
2022/08/18 02:54:17;;;;;;;7.55;6.47;;;;;;;24.70;54.94;101241.69;4963834;28;20037;-64
2022/08/18 02:56:44;;;;;;;9.73;7.00;;;;;;;24.70;54.64;101240.84;4963685;28;20514;-64
2022/08/18 02:59:13;;;;;;;7.32;6.57;;;;;;;24.69;54.97;101233.84;4965039;28;20074;-65
2022/08/18 03:01:42;;;;;;;8.05;6.63;;;;;;;24.71;54.89;101231.88;4982812;28;20034;-65
2022/08/18 03:04:09;;;;;;;7.97;6.72;;;;;;;24.69;54.70;101231.16;4980229;28;20038;-62
2022/08/18 03:06:36;;;;;;;7.63;6.20;;;;;;;24.70;54.73;101235.53;4963769;28;20031;-63
2022/08/18 03:09:03;;;;;;;7.47;6.63;;;;;;;24.66;54.72;101242.16;4980087;28;20069;-62
2022/08/18 03:11:29;;;;;;;7.32;6.53;;;;;;;24.66;54.77;101236.81;4982353;28;20200;-65
2022/08/18 03:13:55;;;;;;;7.33;6.53;;;;;;;24.68;54.61;101248.19;4982831;28;20037;-65
2022/08/18 03:16:23;;;;;;;7.07;6.38;;;;;;;24.65;54.38;101244.00;4982140;28;20272;-65
2022/08/18 03:18:50;;;;;;;7.50;6.47;;;;;;;24.68;54.57;101251.66;4970753;28;20045;-65
2022/08/18 03:21:21;;;;;;;7.45;6.68;;;;;;;24.67;54.60;101254.50;4972190;28;20505;-65
2022/08/18 03:23:49;;;;;;;7.03;6.18;;;;;;;24.67;54.51;101254.50;4974395;28;20125;-64
2022/08/18 03:26:16;;;;;;;7.03;5.90;;;;;;;24.67;54.91;101262.47;4963519;28;20085;-65
2022/08/18 03:28:44;;;;;;;8.40;6.32;;;;;;;24.67;54.25;101262.47;4979554;28;20471;-66
2022/08/18 03:31:13;;;;;;;7.82;6.57;;;;;;;24.66;54.40;101255.47;4972001;28;20612;-66
2022/08/18 03:33:40;;;;;;;7.55;6.60;;;;;;;24.65;54.48;101257.31;4980613;28;20863;-65
2022/08/18 03:36:14;;;;;;;7.32;6.47;;;;;;;24.65;54.55;101253.81;4982222;28;20042;-66
2022/08/18 03:38:42;;;;;;;7.13;6.30;;;;;;;24.63;54.10;101262.78;4964878;28;20038;-64
2022/08/18 03:41:10;;;;;;;7.60;6.80;;;;;;;24.61;54.17;101262.13;4972297;28;20030;-65
2022/08/18 03:43:36;;;;;;;7.78;6.72;;;;;;;24.62;54.23;101254.97;4976740;28;20058;-66
2022/08/18 03:46:08;;;;;;;7.05;5.93;;;;;;;24.63;54.26;101267.31;4962700;28;20166;-66
2022/08/18 03:48:35;;;;;;;8.43;6.53;;;;;;;24.56;54.02;101251.13;4962783;28;20066;-66
2022/08/18 03:51:09;;;;;;;7.22;5.85;;;;;;;24.58;54.19;101250.97;4962869;28;20041;-66
2022/08/18 03:53:35;;;;;;;7.57;6.63;;;;;;;24.60;54.15;101257.78;4970163;28;20041;-65
2022/08/18 03:56:01;;;;;;;7.05;6.32;;;;;;;24.56;53.88;101252.88;4981722;28;20509;-66
2022/08/18 03:58:27;;;;;;;8.45;6.63;;;;;;;24.55;54.12;101252.06;4978075;28;20031;-67
2022/08/18 04:00:52;;;;;;;7.47;6.63;;;;;;;24.58;54.27;101261.63;4962283;28;20411;-67
2022/08/18 04:03:17;;;;;;;7.60;6.70;;;;;;;24.57;54.06;101257.28;4962755;28;20097;-68
2022/08/18 04:05:43;;;;;;;6.93;6.22;;;;;;;24.52;54.08;101246.22;4975148;28;20081;-65
2022/08/18 04:08:09;;;;;;;6.88;6.18;;;;;;;24.55;53.93;101254.72;4964408;28;20081;-66
2022/08/18 04:10:34;;;;;;;7.90;6.55;;;;;;;24.52;54.11;101244.38;4971157;28;20038;-64
2022/08/18 04:13:01;;;;;;;7.93;6.38;;;;;;;24.52;53.95;101241.72;4968630;28;20038;-64
2022/08/18 04:15:26;;;;;;;6.72;5.90;;;;;;;24.51;54.10;101245.38;4962413;28;20479;-66
2022/08/18 04:17:52;;;;;;;6.37;5.67;;;;;;;24.51;54.31;101244.53;4962199;28;20119;-65
2022/08/18 04:20:17;;;;;;;6.60;5.53;;;;;;;24.51;53.95;101241.88;4970515;28;20616;-64
2022/08/18 04:22:44;;;;;;;7.07;5.57;;;;;;;24.56;53.86;101255.56;4969270;28;20368;-63
2022/08/18 04:25:09;;;;;;;7.47;5.82;;;;;;;24.56;54.20;101253.78;4985347;28;20050;-62
2022/08/18 04:27:38;;;;;;;8.10;6.18;;;;;;;24.55;54.21;101262.72;4976450;28;20056;-65
2022/08/18 04:30:04;;;;;;;8.70;6.03;;;;;;;24.52;54.31;101256.88;4985242;28;20038;-63
2022/08/18 04:32:30;;;;;;;7.40;6.35;;;;;;;24.53;54.40;101253.22;4982520;28;20034;-64
2022/08/18 04:34:55;;;;;;;8.38;6.15;;;;;;;24.51;53.90;101252.53;4966266;28;20097;-65
2022/08/18 04:37:21;;;;;;;7.70;6.40;;;;;;;24.54;54.15;101258.38;4972330;28;20824;-65
2022/08/18 04:39:46;;;;;;;7.53;5.72;;;;;;;24.52;54.16;101260.38;4976503;28;20065;-65
2022/08/18 04:42:11;;;;;;;6.88;5.95;;;;;;;24.54;54.14;101266.38;4970337;28;20035;-65
2022/08/18 04:44:37;;;;;;;7.88;6.40;;;;;;;24.51;54.10;101257.88;4967865;28;20039;-65
2022/08/18 04:47:04;;;;;;;6.85;6.00;;;;;;;24.52;54.27;101271.03;4985174;28;20046;-65
2022/08/18 04:49:30;;;;;;;7.35;6.28;;;;;;;24.49;54.20;101258.03;4975028;28;20125;-66
2022/08/18 04:54:41;;;;;;;7.55;6.53;;;;;;;24.54;54.35;101277.03;4973739;28;20197;-65
2022/08/18 04:57:10;;;;;;;7.22;6.30;;;;;;;24.54;54.36;101277.03;4972280;28;20125;-64
2022/08/18 04:59:40;;;;;;;7.45;6.18;;;;;;;24.53;54.29;101278.03;4975902;28;20030;-67
2022/08/18 05:02:07;;;;;;;7.32;6.63;;;;;;;24.45;54.39;101257.50;4965528;28;20054;-65
2022/08/18 05:04:35;;;;;;;6.78;5.97;;;;;;;24.55;54.38;101273.38;4977780;28;20034;-66
2022/08/18 05:07:00;;;;;;;9.57;7.18;;;;;;;24.52;54.15;101265.69;4985188;28;20061;-64
2022/08/18 05:09:26;;;;;;;7.88;6.40;;;;;;;24.52;54.55;101272.88;4968521;28;20069;-63
2022/08/18 05:11:51;;;;;;;8.63;7.13;;;;;;;24.52;54.35;101278.19;4972872;28;20529;-65
2022/08/18 05:14:18;;;;;;;8.38;7.07;;;;;;;24.51;54.29;101282.66;4980700;28;20037;-65
2022/08/18 05:16:44;;;;;;;7.03;6.32;;;;;;;24.54;54.36;101290.34;4976260;28;20031;-64
2022/08/18 05:19:10;;;;;;;10.07;7.68;;;;;;;24.56;54.44;101287.53;4977403;28;20039;-65
2022/08/18 05:21:38;;;;;;;9.77;6.65;;;;;;;24.52;54.63;101280.84;4984528;28;20023;-65
2022/08/18 05:24:04;;;;;;;7.85;6.88;;;;;;;24.52;54.43;101288.84;4984722;28;20133;-67
2022/08/18 05:26:30;;;;;;;7.72;6.60;;;;;;;24.55;54.52;101280.53;4977247;28;20051;-64
2022/08/18 05:28:56;;;;;;;8.20;6.88;;;;;;;24.55;54.73;101284.03;4983520;28;20034;-66
2022/08/18 05:31:24;;;;;;;7.35;6.57;;;;;;;24.55;54.44;101286.69;4975985;28;20037;-67
2022/08/18 05:33:50;;;;;;;8.50;6.93;;;;;;;24.49;54.74;101273.19;4965069;28;20045;-67
2022/08/18 05:36:45;;;;;;;8.02;6.95;;;;;;;24.57;54.67;101291.91;4975314;28;20118;-68
2022/08/18 05:39:16;;;;;;;;;;;;;;;24.55;54.55;101293.88;4985043;28;20036;-65
2022/08/18 05:42:05;;;;;;;8.82;7.30;;;;;;;24.52;54.33;101292.34;4984344;28;19918;-68
2022/08/18 05:44:34;;;;;;;7.88;7.05;;;;;;;24.52;54.71;101284.34;4984133;28;20665;-65
2022/08/18 05:47:12;;;;;;;7.95;6.78;;;;;;;24.52;54.37;101284.34;4984172;28;20037;-67
2022/08/18 05:49:40;;;;;;;7.97;7.18;;;;;;;24.54;54.66;101290.34;4974392;28;20030;-66
2022/08/18 05:52:13;;;;;;;9.15;7.28;;;;;;;24.52;54.38;101288.84;4966586;28;20030;-64
2022/08/18 05:57:41;;;;;;;7.72;6.93;;;;;;;24.52;54.26;101295.00;4964791;28;20053;-64
2022/08/18 06:00:09;;;;;;;8.05;6.97;;;;;;;24.56;54.50;101298.19;4971805;28;20027;-66
2022/08/18 06:02:56;;;;;;;7.63;6.47;;;;;;;24.52;54.55;101294.19;4971878;28;20143;-65
2022/08/18 06:05:31;;;;;;;10.10;7.28;;;;;;;24.53;54.54;101298.50;4964694;28;20087;-65
2022/08/18 06:08:06;;;;;;;8.32;6.70;;;;;;;24.55;54.86;101301.88;4983252;28;20038;-67
2022/08/18 06:10:32;;;;;;;11.93;10.57;;;;;;;24.50;54.99;101302.31;4976099;28;20534;-72
2022/08/18 06:13:00;;;;;;;7.28;6.43;;;;;;;24.45;55.03;101301.97;4976796;28;20185;-64
2022/08/18 06:15:34;;;;;;;6.90;5.68;;;;;;;24.45;55.05;101299.31;4983436;28;20329;-65
2022/08/18 06:18:42;;;;;;;6.18;5.07;;;;;;;24.45;55.46;101299.31;4971011;28;20471;-64
2022/08/18 06:21:36;;;;;;;6.22;5.57;;;;;;;24.46;55.51;101292.97;4951907;28;20037;-64
2022/08/18 06:24:01;;;;;;;;;;;;;;;24.45;55.33;101296.63;4977401;28;20109;-65
2022/08/18 06:26:56;;;;;;;7.32;6.28;;;;;;;24.45;55.49;101310.78;4972812;28;20314;-68
2022/08/18 06:29:46;;;;;;;6.85;5.80;;;;;;;24.47;55.67;101323.09;4959971;28;20051;-72
2022/08/18 06:32:27;;;;;;;8.85;7.30;;;;;;;24.44;55.78;101309.09;4978524;28;20052;-65
2022/08/18 06:35:07;;;;;;;7.25;6.00;;;;;;;24.45;55.92;101313.44;4964816;28;20039;-65
2022/08/18 06:38:37;;;;;;;10.10;6.35;;;;;;;24.49;55.87;101327.28;4965707;28;20430;-64
2022/08/18 06:40:26;;;;;;;7.38;6.00;;;;;;;24.47;55.62;101320.44;4964138;28;20098;-64
2022/08/18 06:42:52;;;;;;;8.77;5.70;;;;;;;24.52;55.72;101320.81;4966340;28;20031;-63
2022/08/18 06:45:22;;;;;;;8.80;6.40;;;;;;;24.50;55.91;101320.97;4981726;28;20042;-63
2022/08/18 06:47:58;;;;;;;7.50;6.30;;;;;;;24.51;55.60;101319.13;4968339;28;20150;-64
2022/08/18 06:50:46;;;;;;;8.73;6.07;;;;;;;24.57;55.42;101329.22;4968248;28;20034;-64
2022/08/18 06:53:11;;;;;;;8.05;6.30;;;;;;;24.52;55.72;101326.16;4966471;28;20043;-65
2022/08/18 06:55:43;;;;;;;7.70;6.63;;;;;;;24.54;55.76;101326.81;4963310;28;20565;-64
2022/08/18 06:58:12;;;;;;;7.18;6.45;;;;;;;24.55;56.02;101332.00;4973999;28;20248;-63
2022/08/18 07:00:42;;;;;;;9.50;6.07;;;;;;;24.44;55.89;101321.59;4970739;28;20533;-72
2022/08/18 07:03:13;;;;;;;7.18;5.53;;;;;;;24.51;56.13;101327.13;4964742;28;20031;-71
2022/08/18 07:06:06;;;;;;;7.53;5.97;;;;;;;24.54;56.51;101329.47;4966455;28;20034;-69
2022/08/18 07:08:35;;;;;;;8.20;5.95;;;;;;;24.54;56.05;101324.97;4967603;28;20066;-70
2022/08/18 07:11:31;;;;;;;7.80;5.57;;;;;;;24.65;55.97;101333.75;4965898;28;20034;-70
2022/08/18 07:14:10;;;;;;;8.13;5.65;;;;;;;24.67;55.75;101329.09;4982132;28;20045;-67
2022/08/18 07:16:36;;;;;;;7.90;6.35;;;;;;;24.74;56.08;101335.50;4967297;28;20125;-68
2022/08/18 07:19:08;;;;;;;7.35;6.00;;;;;;;24.79;55.81;101331.34;4977530;28;20038;-69
2022/08/18 07:21:36;;;;;;;8.55;6.32;;;;;;;24.81;55.34;101331.19;4975335;28;20034;-71
2022/08/18 07:24:11;;;;;;;7.65;5.80;;;;;;;24.81;55.65;101328.53;4976955;28;20158;-72
2022/08/18 07:27:16;;;;;;;8.77;6.05;;;;;;;24.87;55.20;101341.22;4977078;28;20125;-71
2022/08/18 07:29:59;;;;;;;;;;;;;;;24.90;55.44;101345.41;4982269;28;20029;-69
2022/08/18 07:32:31;;;;;;;8.35;6.07;;;;;;;24.96;55.24;101334.97;4972794;28;20284;-74
2022/08/18 07:34:59;;;;;;;7.00;5.90;;;;;;;25.05;55.00;101333.16;4971811;28;20535;-69
2022/08/18 07:37:47;;;;;;;7.68;6.43;;;;;;;25.09;54.92;101337.19;4971886;28;20805;-65
2022/08/18 07:40:37;;;;;;;7.03;6.00;;;;;;;25.07;54.92;101333.00;4965002;28;20043;-63
2022/08/18 07:43:10;;;;;;;7.68;6.18;;;;;;;25.03;54.84;101331.66;4964037;28;20042;-67
2022/08/18 07:45:41;;;;;;;6.95;5.95;;;;;;;24.99;54.99;101331.13;4962792;28;20030;-67
2022/08/18 07:48:27;;;;;;;9.15;6.38;;;;;;;24.98;54.73;101338.28;4968623;28;20077;-65
2022/08/18 07:51:06;;;;;;;6.97;5.63;;;;;;;24.97;55.35;101333.94;4981223;28;20068;-67
2022/08/18 07:53:59;;;;;;;7.85;5.85;;;;;;;24.96;55.15;101332.28;4970750;28;20426;-65
2022/08/18 07:56:41;;;;;;;6.70;6.00;;;;;;;24.99;55.28;101342.63;4977309;28;20022;-69
2022/08/18 07:59:17;;;;;;;7.63;5.43;;;;;;;24.98;55.39;101337.47;4971261;28;20054;-68
2022/08/18 08:02:34;;;;;;;7.15;5.53;;;;;;;24.99;55.72;101336.44;4966676;28;20023;-63
2022/08/18 08:05:19;;;;;;;5.90;4.82;;;;;;;24.96;55.48;101337.63;4969262;28;20058;-67
2022/08/18 08:07:58;;;;;;;7.68;5.43;;;;;;;24.97;55.90;101333.94;4966067;28;20039;-73
2022/08/18 08:10:50;;;;;;;6.28;5.03;;;;;;;24.91;56.03;101334.59;4962470;28;20041;-72
2022/08/18 08:13:37;;;;;;;5.82;5.13;;;;;;;24.99;55.84;101345.31;4973605;28;20061;-72
2022/08/18 08:16:12;;;;;;;6.35;4.90;;;;;;;25.05;55.76;101345.66;4981170;28;20038;-72
2022/08/18 08:19:02;;;;;;;6.43;5.35;;;;;;;25.10;55.51;101346.00;4977061;28;20033;-73
2022/08/18 08:21:33;;;;;;;6.25;5.00;;;;;;;25.13;55.65;101340.38;4975956;28;20371;-74
2022/08/18 08:24:11;;;;;;;6.47;4.65;;;;;;;25.15;55.41;101347.22;4974738;28;20109;-71
2022/08/18 08:26:55;;;;;;;6.20;4.55;;;;;;;25.18;55.39;101348.72;4962180;28;20042;-72
2022/08/18 08:29:34;;;;;;;;;;;;;;;25.21;55.62;101356.41;4975605;28;20037;-73
2022/08/18 08:32:09;;;;;;;5.75;4.93;;;;;;;25.26;55.53;101355.94;4961216;28;19917;-68
2022/08/18 08:34:56;;;;;;;7.65;4.88;;;;;;;25.28;55.29;101356.66;4968074;28;20526;-70
2022/08/18 08:37:52;;;;;;;6.28;4.90;;;;;;;25.26;55.39;101355.94;4973919;28;20379;-70
2022/08/18 08:40:36;;;;;;;5.80;4.40;;;;;;;25.23;55.16;101348.25;4961275;28;20066;-76
2022/08/18 08:43:08;;;;;;;5.65;4.38;;;;;;;25.30;55.34;101354.66;4971415;28;20035;-70
2022/08/18 08:45:38;;;;;;;8.02;4.78;;;;;;;25.31;55.29;101356.31;4971419;28;20038;-74
2022/08/18 08:48:19;;;;;;;9.20;4.70;;;;;;;25.30;55.32;101351.97;4976919;28;20031;-74
2022/08/18 08:50:59;;;;;;;5.45;4.35;;;;;;;25.34;55.10;101356.84;4976225;28;20117;-74
2022/08/18 08:53:37;;;;;;;6.28;4.68;;;;;;;25.43;55.29;101368.38;4975928;28;20026;-73
2022/08/18 08:56:09;;;;;;;5.47;4.25;;;;;;;25.42;55.39;101353.38;4973740;28;20065;-73
2022/08/18 08:58:51;;;;;;;5.88;4.00;;;;;;;25.48;55.31;101363.38;4979151;28;21126;-71
2022/08/18 09:01:57;;;;;;;5.75;4.43;;;;;;;25.48;54.92;101362.56;4973461;28;20031;-70
2022/08/18 09:04:41;;;;;;;6.05;4.30;;;;;;;25.46;55.06;101357.38;4965146;28;20061;-69
2022/08/18 09:07:35;;;;;;;5.90;4.00;;;;;;;25.39;54.90;101355.50;4961549;28;20062;-70
2022/08/18 09:10:28;;;;;;;5.28;4.10;;;;;;;25.45;55.20;101358.41;4970878;28;20096;-72
2022/08/18 09:13:02;;;;;;;6.95;4.20;;;;;;;25.48;54.70;101359.88;4972684;28;20551;-69
2022/08/18 09:15:57;;;;;;;5.53;3.90;;;;;;;25.51;54.71;101355.06;4978926;28;20045;-70
2022/08/18 09:18:42;;;;;;;5.32;3.88;;;;;;;25.54;54.88;101359.25;4971883;28;20126;-69
2022/08/18 09:21:43;;;;;;;5.45;3.70;;;;;;;25.56;54.58;101349.22;4968195;28;20029;-73
2022/08/18 09:24:17;;;;;;;6.47;3.85;;;;;;;25.64;54.59;101356.44;4962053;28;20126;-76
2022/08/18 09:26:51;;;;;;;5.47;4.00;;;;;;;25.61;54.79;101352.28;4972872;28;20046;-70
2022/08/18 09:29:17;;;;;;;;;;;;;;;25.64;54.49;101359.97;4984067;28;20026;-74
2022/08/18 09:31:45;;;;;;;4.95;3.90;;;;;;;25.66;54.62;101352.63;4975102;28;20385;-74
2022/08/18 09:34:37;;;;;;;5.22;3.88;;;;;;;25.70;54.76;101350.44;4982101;28;20026;-74
2022/08/18 09:37:10;;;;;;;5.20;3.40;;;;;;;25.71;54.47;101350.28;4965484;28;20035;-71
2022/08/18 09:43:14;;;;;;;7.10;4.10;;;;;;;25.72;54.03;101351.13;4972205;28;20046;-71
2022/08/18 09:45:45;;;;;;;4.90;3.30;;;;;;;25.75;54.22;101347.28;4965747;28;20054;-74
2022/08/18 09:48:11;;;;;;;5.25;3.60;;;;;;;25.75;54.58;101348.13;4964439;28;20138;-70
2022/08/18 09:50:52;;;;;;;5.53;3.80;;;;;;;25.74;54.36;101346.47;4978287;28;20129;-71
2022/08/18 09:53:35;;;;;;;5.00;3.63;;;;;;;25.75;54.81;101348.13;4977847;28;20033;-77
2022/08/18 09:56:01;;;;;;;5.43;3.80;;;;;;;25.73;54.89;101338.63;4966422;28;20042;-72
2022/08/18 09:58:28;;;;;;;5.03;3.67;;;;;;;25.77;54.44;101353.28;4967832;28;20194;-71
2022/08/18 10:01:19;;;;;;;4.90;3.47;;;;;;;25.79;54.27;101352.16;4981682;28;20112;-69
2022/08/18 10:04:14;;;;;;;4.93;3.40;;;;;;;25.80;54.32;101353.81;4978716;28;20105;-72
2022/08/18 10:06:45;;;;;;;6.93;3.85;;;;;;;25.79;54.07;101345.97;4971973;28;20061;-73
2022/08/18 10:09:29;;;;;;;5.15;3.67;;;;;;;25.78;54.06;101337.13;4968714;28;20046;-72
2022/08/18 10:12:13;;;;;;;5.45;3.58;;;;;;;25.83;54.03;101348.13;4978102;28;20070;-73
2022/08/18 10:15:01;;;;;;;5.35;3.55;;;;;;;25.83;53.84;101344.63;4963837;28;20424;-71
2022/08/18 10:17:47;;;;;;;8.40;3.50;;;;;;;25.82;54.13;101337.63;4971421;28;20058;-73
2022/08/18 10:20:15;;;;;;;6.25;3.55;;;;;;;25.88;53.92;101344.97;4981105;28;20030;-71
2022/08/18 10:22:46;;;;;;;5.22;3.67;;;;;;;25.84;54.37;101340.97;4976698;28;20338;-72
2022/08/18 10:25:28;;;;;;;4.88;3.40;;;;;;;25.87;54.22;101340.66;4982181;28;20150;-70
2022/08/18 10:27:57;;;;;;;5.35;3.47;;;;;;;25.88;54.22;101343.16;4974223;28;20035;-74
2022/08/18 10:30:29;;;;;;;4.70;3.40;;;;;;;25.92;54.07;101342.84;4969424;28;20728;-71
2022/08/18 10:32:54;;;;;;;4.43;2.97;;;;;;;25.89;53.73;101326.13;4963272;28;20066;-69
2022/08/18 10:35:35;;;;;;;4.50;3.25;;;;;;;25.92;53.90;101329.47;4963242;28;20435;-70
2022/08/18 10:38:25;;;;;;;4.50;3.00;;;;;;;25.89;53.65;101331.47;4963357;28;20050;-75
2022/08/18 10:40:57;;;;;;;5.25;3.42;;;;;;;25.96;53.72;101333.47;4963512;28;20112;-72
2022/08/18 10:43:31;;;;;;;4.65;3.20;;;;;;;25.90;53.57;101326.97;4965381;28;20038;-70
2022/08/18 10:45:57;;;;;;;5.07;3.20;;;;;;;25.85;53.66;101324.78;4970042;28;20031;-70
2022/08/18 10:48:29;;;;;;;5.00;3.35;;;;;;;25.85;53.80;101327.47;4965034;28;20070;-71
2022/08/18 10:51:25;;;;;;;7.53;3.42;;;;;;;25.82;54.13;101327.78;4970643;28;20031;-72
2022/08/18 10:54:08;;;;;;;5.03;3.65;;;;;;;25.85;54.10;101337.28;4963169;28;20406;-71
2022/08/18 10:56:42;;;;;;;4.72;3.03;;;;;;;25.82;54.10;101325.13;4967899;28;20042;-70
2022/08/18 10:59:19;;;;;;;8.15;3.20;;;;;;;25.86;53.99;101328.28;4968641;28;20430;-71
2022/08/18 11:02:07;;;;;;;6.82;2.90;;;;;;;25.85;54.17;101330.13;4966225;28;20038;-71
2022/08/18 11:04:39;;;;;;;5.03;3.17;;;;;;;25.90;53.67;101337.66;4979035;28;20045;-72
2022/08/18 11:07:14;;;;;;;4.75;3.22;;;;;;;25.91;53.51;101336.63;4981847;28;20027;-69
2022/08/18 11:09:42;;;;;;;6.47;3.40;;;;;;;25.91;54.02;101335.81;4978568;28;20030;-69
2022/08/18 11:12:09;;;;;;;8.07;3.63;;;;;;;25.91;53.78;101335.81;4975094;28;20038;-71
2022/08/18 11:14:58;;;;;;;6.45;3.28;;;;;;;25.85;53.50;101313.25;4979261;28;20049;-71
2022/08/18 11:17:39;;;;;;;4.60;3.20;;;;;;;25.94;53.55;101308.78;4971364;28;20045;-72
2022/08/18 11:20:08;;;;;;;6.20;3.30;;;;;;;25.92;53.49;101318.81;4962558;28;20129;-72
2022/08/18 11:22:35;;;;;;;5.22;3.13;;;;;;;25.89;53.39;101304.75;4962765;28;20340;-71
2022/08/18 11:25:04;;;;;;;4.60;2.90;;;;;;;25.95;53.30;101303.28;4965644;28;20062;-76
2022/08/18 11:27:36;;;;;;;4.25;2.90;;;;;;;25.98;53.03;101294.16;4973822;28;20034;-72
2022/08/18 11:30:04;;;;;;;5.18;3.13;;;;;;;25.99;53.41;101293.13;4972269;28;20034;-69
2022/08/18 11:32:36;;;;;;;7.15;3.17;;;;;;;26.00;53.46;101294.81;4962767;28;20122;-66
2022/08/18 11:35:10;;;;;;;5.90;3.38;;;;;;;25.96;53.02;101288.09;4968820;28;20043;-67
2022/08/18 11:37:38;;;;;;;4.20;2.92;;;;;;;26.01;53.05;101293.78;4966606;28;20041;-67
2022/08/18 11:40:11;;;;;;;7.70;2.72;;;;;;;26.02;53.03;101290.94;4979126;28;20018;-67
2022/08/18 11:42:40;;;;;;;6.50;2.95;;;;;;;26.02;52.81;101282.94;4973044;28;20022;-73
2022/08/18 11:45:16;;;;;;;4.43;2.90;;;;;;;26.03;53.05;101284.63;4972341;28;20035;-67
2022/08/18 11:48:00;;;;;;;4.22;2.85;;;;;;;26.04;52.99;101285.44;4976250;28;20058;-67
2022/08/18 11:50:29;;;;;;;7.70;3.25;;;;;;;26.04;52.91;101280.97;4982019;28;20105;-69
2022/08/18 11:52:55;;;;;;;4.60;2.78;;;;;;;26.03;52.74;101275.78;4979437;28;20045;-67
2022/08/18 11:55:29;;;;;;;6.32;3.30;;;;;;;25.98;52.68;101262.94;4976991;28;20030;-67
2022/08/18 11:57:56;;;;;;;4.63;2.85;;;;;;;26.02;52.65;101264.25;4981841;28;20463;-69
2022/08/18 12:00:37;;;;;;;5.05;3.00;;;;;;;26.04;52.41;101264.06;4981644;28;20026;-67
2022/08/18 12:03:14;;;;;;;4.72;3.05;;;;;;;26.04;52.49;101264.94;4973243;28;20030;-68
2022/08/18 12:05:45;;;;;;;4.75;3.05;;;;;;;26.03;52.40;101267.78;4963683;28;20037;-70